createdAt,value
2023-03-17T00:01:22.522Z,4.30
2023-03-17T00:03:51.540Z,3.80
2023-03-17T00:06:25.996Z,2.40
2023-03-17T00:08:53.912Z,2.97
2023-03-17T00:11:23.288Z,2.93
2023-03-17T00:13:53.004Z,3.20
2023-03-17T00:16:23.116Z,4.63
2023-03-17T00:18:52.113Z,3.37
2023-03-17T00:21:26.943Z,2.80
2023-03-17T00:23:56.198Z,3.03
2023-03-17T00:26:26.458Z,2.87
2023-03-17T00:28:55.316Z,3.20
2023-03-17T00:31:26.231Z,3.53
2023-03-17T00:33:55.738Z,3.50
2023-03-17T00:36:25.482Z,2.50
2023-03-17T00:38:53.693Z,2.67
2023-03-17T00:41:22.355Z,2.47
2023-03-17T00:43:51.760Z,2.83
2023-03-17T00:46:24.773Z,3.50
2023-03-17T00:48:52.982Z,3.10
2023-03-17T00:51:21.104Z,3.63
2023-03-17T00:53:49.127Z,2.90
2023-03-17T00:56:19.218Z,2.90
2023-03-17T00:58:47.982Z,2.87
2023-03-17T01:01:18.369Z,3.60
2023-03-17T01:03:46.853Z,2.83
2023-03-17T01:06:15.923Z,4.43
2023-03-17T01:08:45.328Z,2.90
2023-03-17T01:11:18.459Z,3.07
2023-03-17T01:13:46.764Z,4.83
2023-03-17T01:16:17.139Z,4.80
2023-03-17T01:18:45.569Z,4.43
2023-03-17T01:21:13.934Z,3.40
2023-03-17T01:23:42.143Z,3.90
2023-03-17T01:26:10.099Z,3.20
2023-03-17T01:28:38.088Z,5.63
2023-03-17T01:31:06.243Z,3.60
2023-03-17T01:33:35.557Z,5.60
2023-03-17T01:36:03.612Z,2.93
2023-03-17T01:38:32.514Z,3.50
2023-03-17T01:41:03.286Z,3.17
2023-03-17T01:43:31.875Z,5.90
2023-03-17T01:46:29.136Z,3.40
2023-03-17T01:49:04.491Z,3.40
2023-03-17T01:51:36.102Z,3.10
2023-03-17T01:54:08.542Z,3.50
2023-03-17T01:56:37.918Z,3.40
2023-03-17T01:59:09.544Z,4.07
2023-03-17T02:01:43.530Z,3.83
2023-03-17T02:04:14.189Z,4.57
2023-03-17T02:06:56.774Z,3.50
2023-03-17T02:09:26.367Z,3.53
2023-03-17T02:11:54.546Z,4.00
2023-03-17T02:14:22.770Z,3.57
2023-03-17T02:16:50.825Z,3.60
2023-03-17T02:19:20.169Z,3.70
2023-03-17T02:21:51.910Z,3.83
2023-03-17T02:24:28.925Z,3.70
2023-03-17T02:27:01.270Z,3.60
2023-03-17T02:29:29.273Z,3.40
2023-03-17T02:31:57.236Z,5.37
2023-03-17T02:34:25.504Z,4.23
2023-03-17T02:36:54.843Z,3.07
2023-03-17T02:39:22.789Z,4.50
2023-03-17T02:41:50.789Z,4.30
2023-03-17T02:44:18.904Z,5.50
2023-03-17T02:46:46.928Z,4.33
2023-03-17T02:49:16.293Z,3.73
2023-03-17T02:51:45.084Z,4.20
2023-03-17T02:54:14.481Z,3.57
2023-03-17T02:56:42.411Z,3.77
2023-03-17T02:59:11.067Z,5.50
2023-03-17T03:01:39.639Z,4.10
2023-03-17T03:04:08.607Z,4.60
2023-03-17T03:06:37.419Z,4.23
2023-03-17T03:09:05.613Z,3.40
2023-03-17T03:11:34.899Z,5.30
2023-03-17T03:14:03.480Z,3.93
2023-03-17T03:16:31.488Z,4.10
2023-03-17T03:18:59.443Z,5.13
2023-03-17T03:21:27.598Z,4.40
2023-03-17T03:23:55.632Z,4.50
2023-03-17T03:26:23.564Z,4.13
2023-03-17T03:28:53.811Z,4.30
2023-03-17T03:31:21.795Z,4.13
2023-03-17T03:33:49.778Z,5.27
2023-03-17T03:36:18.436Z,4.30
2023-03-17T03:38:46.599Z,4.77
2023-03-17T03:41:14.533Z,4.23
2023-03-17T03:43:42.446Z,4.83
2023-03-17T03:46:11.782Z,4.17
2023-03-17T03:48:39.707Z,4.87
2023-03-17T03:51:07.889Z,5.13
2023-03-17T03:53:36.120Z,4.70
2023-03-17T03:56:04.034Z,5.57
2023-03-17T03:58:31.963Z,4.50
2023-03-17T04:00:59.902Z,5.50
2023-03-17T04:03:29.197Z,4.97
2023-03-17T04:05:57.655Z,4.23
2023-03-17T04:08:26.009Z,5.23
2023-03-17T04:10:54.024Z,4.47
2023-03-17T04:13:22.150Z,4.67
2023-03-17T04:15:50.074Z,5.37
2023-03-17T04:18:18.557Z,4.27
2023-03-17T04:20:47.838Z,4.27
2023-03-17T04:23:15.737Z,4.87
2023-03-17T04:25:43.615Z,4.70
2023-03-17T04:28:12.188Z,4.80
2023-03-17T04:30:40.106Z,8.87
2023-03-17T04:33:08.391Z,5.53
2023-03-17T04:35:36.374Z,4.63
2023-03-17T04:38:05.645Z,5.43
2023-03-17T04:40:33.566Z,5.67
2023-03-17T04:43:03.488Z,5.83
2023-03-17T04:45:31.613Z,6.17
2023-03-17T04:47:59.558Z,5.80
2023-03-17T04:50:27.517Z,6.27
2023-03-17T04:52:55.707Z,5.50
2023-03-17T04:55:25.001Z,6.50
2023-03-17T04:57:52.891Z,5.10
2023-03-17T05:00:21.294Z,6.00
2023-03-17T05:02:49.224Z,6.50
2023-03-17T05:05:17.251Z,5.23
2023-03-17T05:07:45.402Z,6.20
2023-03-17T05:10:13.748Z,4.93
2023-03-17T05:12:43.056Z,5.43
2023-03-17T05:15:11.520Z,5.60
2023-03-17T05:17:39.472Z,4.70
2023-03-17T05:20:09.379Z,6.03
2023-03-17T05:22:37.391Z,5.00
2023-03-17T05:25:06.654Z,5.27
2023-03-17T05:27:34.573Z,4.97
2023-03-17T05:30:04.288Z,5.20
2023-03-17T05:32:32.449Z,7.03
2023-03-17T05:35:00.400Z,5.53
2023-03-17T05:37:28.360Z,5.00
2023-03-17T05:39:56.271Z,5.40
2023-03-17T05:42:24.204Z,5.73
2023-03-17T05:44:52.106Z,8.43
2023-03-17T05:47:22.746Z,5.50
2023-03-17T05:49:50.781Z,6.00
2023-03-17T05:52:18.683Z,7.43
2023-03-17T05:54:48.915Z,5.50
2023-03-17T05:57:17.136Z,5.53
2023-03-17T05:59:45.385Z,5.50
2023-03-17T06:02:14.438Z,6.00
2023-03-17T06:04:44.185Z,5.87
2023-03-17T06:07:13.009Z,7.33
2023-03-17T06:09:41.650Z,6.00
2023-03-17T06:12:10.428Z,5.30
2023-03-17T06:14:38.353Z,5.90
2023-03-17T06:17:06.695Z,6.70
2023-03-17T06:19:34.641Z,6.00
2023-03-17T06:22:03.952Z,5.97
2023-03-17T06:24:31.896Z,5.73
2023-03-17T06:26:59.959Z,5.60
2023-03-17T06:29:28.632Z,5.23
2023-03-17T06:31:59.545Z,6.77
2023-03-17T06:34:29.334Z,6.80
2023-03-17T06:36:57.232Z,6.00
2023-03-17T06:39:26.616Z,6.00
2023-03-17T06:41:54.697Z,5.83
2023-03-17T06:44:22.628Z,7.80
2023-03-17T06:46:51.079Z,6.10
2023-03-17T06:49:19.077Z,6.00
2023-03-17T06:51:46.972Z,6.47
2023-03-17T06:54:14.867Z,6.27
2023-03-17T06:56:44.926Z,6.50
2023-03-17T06:59:13.302Z,6.23
2023-03-17T07:01:41.309Z,6.40
2023-03-17T07:04:09.415Z,6.10
2023-03-17T07:06:37.501Z,6.40
2023-03-17T07:09:07.565Z,6.40
2023-03-17T07:11:35.469Z,6.27
2023-03-17T07:14:05.496Z,6.57
2023-03-17T07:16:33.819Z,7.80
2023-03-17T07:19:02.492Z,5.90
2023-03-17T07:21:30.394Z,6.70
2023-03-17T07:23:58.327Z,5.97
2023-03-17T07:26:26.321Z,6.53
2023-03-17T07:28:54.234Z,6.47
2023-03-17T07:31:24.144Z,7.50
2023-03-17T07:33:52.128Z,8.50
2023-03-17T07:36:20.013Z,6.03
2023-03-17T07:38:48.857Z,6.73
2023-03-17T07:41:16.807Z,6.10
2023-03-17T07:43:44.755Z,6.60
2023-03-17T07:46:13.662Z,6.17
2023-03-17T07:48:44.003Z,7.40
2023-03-17T07:51:15.465Z,6.53
2023-03-17T07:53:45.089Z,6.73
2023-03-17T07:56:13.867Z,6.03
2023-03-17T07:58:41.817Z,6.37
2023-03-17T08:01:09.888Z,6.50
2023-03-17T08:03:41.120Z,7.43
2023-03-17T08:06:11.306Z,5.77
2023-03-17T08:08:39.296Z,5.93
2023-03-17T08:11:07.695Z,6.17
2023-03-17T08:13:35.856Z,6.90
2023-03-17T08:16:03.851Z,6.33
2023-03-17T08:18:32.014Z,5.87
2023-03-17T08:20:59.964Z,5.33
2023-03-17T08:23:29.260Z,6.33
2023-03-17T08:26:00.755Z,6.87
2023-03-17T08:28:28.872Z,7.00
2023-03-17T08:31:08.408Z,6.47
2023-03-17T08:33:37.399Z,5.70
2023-03-17T08:36:06.848Z,6.00
2023-03-17T08:38:36.414Z,6.60
2023-03-17T08:41:06.300Z,6.53
2023-03-17T08:43:34.695Z,5.97
2023-03-17T08:46:07.060Z,6.00
2023-03-17T08:48:37.298Z,6.43
2023-03-17T08:51:06.830Z,6.67
2023-03-17T08:53:37.326Z,5.27
2023-03-17T08:56:06.933Z,6.73
2023-03-17T08:58:35.444Z,5.43
2023-03-17T09:01:05.444Z,5.60
2023-03-17T09:03:33.984Z,5.43
2023-03-17T09:06:04.562Z,4.70
2023-03-17T09:08:32.813Z,5.10
2023-03-17T09:11:05.311Z,5.23
2023-03-17T09:13:33.399Z,5.37
2023-03-17T09:16:02.611Z,4.87
2023-03-17T09:18:31.350Z,5.23
2023-03-17T09:20:59.336Z,5.50
2023-03-17T09:23:27.460Z,5.23
2023-03-17T09:25:55.838Z,6.53
2023-03-17T09:28:25.149Z,4.80
2023-03-17T09:30:53.796Z,3.87
2023-03-17T09:33:21.745Z,4.40
2023-03-17T09:35:52.261Z,4.03
2023-03-17T09:38:20.243Z,4.13
2023-03-17T09:40:50.324Z,5.80
2023-03-17T09:43:27.273Z,5.03
2023-03-17T09:45:56.584Z,4.00
2023-03-17T09:48:43.963Z,4.20
2023-03-17T09:51:14.319Z,5.80
2023-03-17T09:53:49.977Z,4.47
2023-03-17T09:56:19.940Z,4.53
2023-03-17T09:58:54.988Z,4.30
2023-03-17T10:01:24.045Z,6.00
2023-03-17T10:03:52.147Z,4.33
2023-03-17T10:06:32.168Z,4.43
2023-03-17T10:09:17.328Z,4.33
2023-03-17T10:11:48.776Z,4.57
2023-03-17T10:14:38.260Z,4.90
2023-03-17T10:17:15.399Z,5.77
2023-03-17T10:19:47.265Z,4.27
2023-03-17T10:22:21.652Z,4.60
2023-03-17T10:24:53.562Z,4.73
2023-03-17T10:27:22.429Z,4.47
2023-03-17T10:29:51.906Z,4.00
2023-03-17T10:32:19.868Z,4.70
2023-03-17T10:34:49.277Z,4.03
2023-03-17T10:37:19.859Z,3.80
2023-03-17T10:39:51.784Z,4.17
2023-03-17T10:42:24.716Z,4.40
2023-03-17T10:44:57.611Z,5.10
2023-03-17T10:47:31.533Z,4.33
2023-03-17T10:50:05.411Z,3.83
2023-03-17T10:52:39.478Z,3.90
2023-03-17T10:55:09.047Z,3.70
2023-03-17T10:57:38.802Z,3.37
2023-03-17T11:00:15.661Z,3.70
2023-03-17T11:02:48.357Z,3.40
2023-03-17T11:05:21.518Z,3.73
2023-03-17T11:07:49.704Z,3.53
2023-03-17T11:10:21.075Z,3.03
2023-03-17T11:12:51.296Z,3.63
2023-03-17T11:15:21.049Z,4.37
2023-03-17T11:17:59.034Z,3.43
2023-03-17T11:20:49.628Z,3.70
2023-03-17T11:23:45.208Z,3.77
2023-03-17T11:26:44.766Z,3.80
2023-03-17T11:29:26.644Z,4.00
2023-03-17T11:32:02.203Z,3.40
2023-03-17T11:34:48.948Z,3.73
2023-03-17T11:37:28.773Z,3.53
2023-03-17T11:40:04.150Z,5.00
2023-03-17T11:42:38.728Z,5.53
2023-03-17T11:45:23.896Z,4.53
2023-03-17T11:48:13.962Z,3.10
2023-03-17T11:50:51.450Z,11.73
2023-03-17T11:53:31.492Z,37.93
2023-03-17T11:56:04.392Z,14.40
2023-03-17T11:58:37.552Z,15.50
2023-03-17T12:01:08.976Z,5.33
2023-03-17T12:03:43.188Z,4.70
2023-03-17T12:06:17.936Z,4.30
2023-03-17T12:08:52.509Z,4.53
2023-03-17T12:11:25.249Z,3.63
2023-03-17T12:13:56.721Z,3.23
2023-03-17T12:16:33.059Z,4.17
2023-03-17T12:19:13.101Z,3.30
2023-03-17T12:21:46.529Z,3.47
2023-03-17T12:24:20.070Z,4.00
2023-03-17T12:26:57.568Z,4.10
2023-03-17T12:29:39.545Z,2.80
2023-03-17T12:32:12.966Z,2.67
2023-03-17T12:34:47.576Z,2.63
2023-03-17T12:37:17.217Z,3.07
2023-03-17T12:39:50.546Z,4.50
2023-03-17T12:42:30.768Z,3.03
2023-03-17T12:45:40.936Z,3.60
2023-03-17T12:48:30.830Z,3.03
2023-03-17T12:51:39.534Z,3.70
2023-03-17T12:54:15.322Z,3.10
2023-03-17T12:56:46.960Z,2.70
2023-03-17T12:59:20.406Z,3.00
2023-03-17T13:01:57.334Z,2.80
2023-03-17T13:04:27.804Z,2.60
2023-03-17T13:07:05.271Z,2.67
2023-03-17T13:09:47.112Z,3.13
2023-03-17T13:12:56.463Z,2.47
2023-03-17T13:15:30.554Z,3.10
2023-03-17T13:18:31.290Z,2.70
2023-03-17T13:21:13.898Z,2.57
2023-03-17T13:23:45.679Z,2.80
2023-03-17T13:26:16.249Z,2.97
2023-03-17T13:28:48.633Z,3.03
2023-03-17T13:31:33.851Z,3.00
2023-03-17T13:34:14.359Z,2.80
2023-03-17T13:36:58.465Z,2.77
2023-03-17T13:39:50.405Z,3.27
2023-03-17T13:42:31.130Z,2.60
2023-03-17T13:45:14.216Z,2.80
2023-03-17T13:47:43.143Z,3.40
2023-03-17T13:50:16.425Z,2.93
2023-03-17T13:52:49.365Z,3.30
2023-03-17T13:55:40.803Z,2.90
2023-03-17T13:58:26.139Z,3.03
2023-03-17T14:01:02.499Z,2.70
2023-03-17T14:03:36.627Z,3.67
2023-03-17T14:06:07.991Z,2.60
2023-03-17T14:08:37.956Z,2.50
2023-03-17T14:11:17.046Z,2.63
2023-03-17T14:13:53.647Z,2.53
2023-03-17T14:16:27.427Z,2.33
2023-03-17T14:19:00.020Z,2.70
2023-03-17T14:21:32.382Z,2.60
2023-03-17T14:24:01.966Z,2.90
2023-03-17T14:26:33.322Z,2.90
2023-03-17T14:29:02.239Z,2.30
2023-03-17T14:31:31.012Z,2.80
2023-03-17T14:34:00.905Z,2.87
2023-03-17T14:36:33.498Z,2.83
2023-03-17T14:39:01.549Z,2.77
2023-03-17T14:41:32.874Z,2.90
2023-03-17T14:44:03.093Z,2.77
2023-03-17T14:46:33.689Z,4.40
2023-03-17T14:49:04.493Z,3.57
2023-03-17T14:51:36.116Z,3.97
2023-03-17T14:54:06.015Z,3.27
2023-03-17T14:56:38.564Z,3.63
2023-03-17T14:59:08.608Z,2.60
2023-03-17T15:01:39.733Z,2.70
2023-03-17T15:04:12.924Z,2.40
2023-03-17T15:06:49.850Z,2.90
2023-03-17T15:09:20.638Z,2.80
2023-03-17T15:11:50.381Z,2.47
2023-03-17T15:14:22.528Z,2.43
2023-03-17T15:16:52.465Z,2.53
2023-03-17T15:19:23.608Z,2.53
2023-03-17T15:21:51.907Z,3.80
2023-03-17T15:24:30.287Z,2.23
2023-03-17T15:27:05.703Z,2.50
2023-03-17T15:29:34.135Z,5.50
2023-03-17T15:32:11.048Z,2.50
2023-03-17T15:34:39.033Z,2.20
2023-03-17T15:37:15.422Z,3.40
2023-03-17T15:39:43.394Z,2.40
2023-03-17T15:42:12.828Z,3.10
2023-03-17T15:44:40.821Z,2.87
2023-03-17T15:47:09.139Z,3.10
2023-03-17T15:49:37.078Z,3.90
2023-03-17T15:52:07.574Z,4.03
2023-03-17T15:54:35.920Z,3.50
2023-03-17T15:57:03.962Z,3.13
2023-03-17T15:59:33.262Z,2.60
2023-03-17T16:02:01.376Z,2.50
2023-03-17T16:04:29.349Z,4.40
2023-03-17T16:06:57.246Z,2.00
2023-03-17T16:09:25.208Z,3.20
2023-03-17T16:11:53.102Z,2.57
2023-03-17T16:14:21.036Z,3.10
2023-03-17T16:16:50.323Z,3.40
2023-03-17T16:19:20.277Z,2.13
2023-03-17T16:21:48.887Z,3.23
2023-03-17T16:24:19.878Z,3.17
2023-03-17T16:26:47.790Z,3.23
2023-03-17T16:29:16.337Z,2.40
2023-03-17T16:31:45.756Z,3.37
2023-03-17T16:34:19.080Z,3.37
2023-03-17T16:36:47.198Z,4.33
2023-03-17T16:39:18.584Z,2.70
2023-03-17T16:41:48.008Z,2.70
2023-03-17T16:44:17.709Z,2.90
2023-03-17T16:46:46.225Z,2.90
2023-03-17T16:49:16.467Z,3.20
2023-03-17T16:51:44.780Z,4.47
2023-03-17T16:54:13.109Z,4.10
2023-03-17T16:56:42.418Z,2.80
2023-03-17T16:59:20.661Z,2.50
2023-03-17T17:01:48.650Z,3.53
2023-03-17T17:04:17.944Z,4.27
2023-03-17T17:06:45.899Z,3.27
2023-03-17T17:09:13.866Z,3.13
2023-03-17T17:11:41.818Z,3.17
2023-03-17T17:14:09.825Z,2.80
2023-03-17T17:16:40.314Z,3.73
2023-03-17T17:19:15.862Z,3.20
2023-03-17T17:21:45.774Z,3.20
2023-03-17T17:24:14.642Z,4.23
2023-03-17T17:26:42.735Z,3.67
2023-03-17T17:29:10.666Z,4.57
2023-03-17T17:31:38.744Z,3.70
2023-03-17T17:34:06.686Z,3.37
2023-03-17T17:36:34.662Z,3.10
2023-03-17T17:39:04.610Z,6.60
2023-03-17T17:41:33.919Z,4.37
2023-03-17T17:44:01.979Z,3.60
2023-03-17T17:46:29.941Z,3.73
2023-03-17T17:48:57.943Z,4.13
2023-03-17T17:51:26.038Z,3.90
2023-03-17T17:53:54.000Z,3.83
2023-03-17T17:56:24.183Z,4.20
2023-03-17T17:58:52.188Z,4.93
2023-03-17T18:01:22.593Z,3.90
2023-03-17T18:03:50.909Z,3.77
2023-03-17T18:06:18.923Z,3.47
2023-03-17T18:08:47.351Z,4.77
2023-03-17T18:11:15.508Z,4.30
2023-03-17T18:13:44.818Z,4.60
2023-03-17T18:16:17.202Z,5.03
2023-03-17T18:18:46.131Z,4.60
2023-03-17T18:21:14.671Z,4.60
2023-03-17T18:23:47.003Z,4.33
2023-03-17T18:26:16.018Z,4.80
2023-03-17T18:28:45.760Z,5.10
2023-03-17T18:31:17.632Z,6.40
2023-03-17T18:33:48.255Z,4.17
2023-03-17T18:36:16.283Z,4.80
2023-03-17T18:38:44.220Z,4.37
2023-03-17T18:41:12.566Z,7.10
2023-03-17T18:43:41.130Z,4.70
2023-03-17T18:46:10.814Z,5.17
2023-03-17T18:48:38.719Z,4.03
2023-03-17T18:51:07.211Z,5.03
2023-03-17T18:53:35.450Z,4.50
2023-03-17T18:56:03.940Z,4.60
2023-03-17T18:58:31.877Z,4.40
2023-03-17T19:01:00.943Z,5.40
2023-03-17T19:03:31.993Z,5.43
2023-03-17T19:06:08.723Z,5.93
2023-03-17T19:08:37.093Z,3.57
2023-03-17T19:11:06.687Z,4.10
2023-03-17T19:13:34.832Z,4.03
2023-03-17T19:16:02.854Z,4.33
2023-03-17T19:18:32.872Z,5.20
2023-03-17T19:21:01.152Z,4.53
2023-03-17T19:23:29.708Z,5.60
2023-03-17T19:25:57.610Z,4.60
2023-03-17T19:28:25.630Z,7.13
2023-03-17T19:30:55.541Z,8.63
2023-03-17T19:33:23.638Z,5.43
2023-03-17T19:35:55.996Z,6.07
2023-03-17T19:38:24.195Z,4.33
2023-03-17T19:40:52.832Z,5.20
2023-03-17T19:43:38.996Z,5.57
2023-03-17T19:46:08.836Z,5.87
2023-03-17T19:48:37.385Z,7.13
2023-03-17T19:51:07.984Z,8.70
2023-03-17T19:53:37.220Z,7.87
2023-03-17T19:56:05.561Z,8.00
2023-03-17T19:58:33.510Z,7.70
2023-03-17T20:01:01.729Z,8.20
2023-03-17T20:03:29.680Z,8.33
2023-03-17T20:05:57.628Z,8.10
2023-03-17T20:08:26.949Z,8.70
2023-03-17T20:10:55.180Z,7.60
2023-03-17T20:13:23.514Z,8.33
2023-03-17T20:15:52.777Z,8.53
2023-03-17T20:18:21.072Z,8.47
2023-03-17T20:20:53.602Z,9.17
2023-03-17T20:23:22.605Z,9.43
2023-03-17T20:25:53.251Z,8.73
2023-03-17T20:28:22.455Z,7.43
2023-03-17T20:30:50.980Z,9.20
2023-03-17T20:33:18.979Z,8.10
2023-03-17T20:35:47.602Z,8.07
2023-03-17T20:38:15.650Z,7.73
2023-03-17T20:40:43.723Z,8.50
2023-03-17T20:43:13.037Z,8.50
2023-03-17T20:45:41.044Z,8.50
2023-03-17T20:48:11.263Z,10.23
2023-03-17T20:50:40.019Z,8.77
2023-03-17T20:53:08.622Z,8.33
2023-03-17T20:55:37.439Z,8.53
2023-03-17T20:58:05.640Z,8.33
2023-03-17T21:00:35.423Z,7.97
2023-03-17T21:03:03.845Z,7.63
2023-03-17T21:05:32.624Z,8.23
2023-03-17T21:08:01.187Z,10.90
2023-03-17T21:10:29.280Z,9.90
2023-03-17T21:12:57.245Z,8.93
2023-03-17T21:15:25.279Z,7.53
2023-03-17T21:17:54.796Z,7.67
2023-03-17T21:20:25.152Z,6.50
2023-03-17T21:22:53.116Z,6.80
2023-03-17T21:25:21.048Z,6.60
2023-03-17T21:27:48.892Z,7.37
2023-03-17T21:30:17.293Z,6.53
2023-03-17T21:32:45.311Z,6.37
2023-03-17T21:35:14.844Z,6.83
2023-03-17T21:37:42.831Z,7.63
2023-03-17T21:40:13.533Z,8.20
2023-03-17T21:42:41.445Z,7.43
2023-03-17T21:45:10.117Z,6.50
2023-03-17T21:47:38.066Z,6.67
2023-03-17T21:50:06.862Z,6.67
2023-03-17T21:52:36.135Z,6.17
2023-03-17T21:55:04.209Z,5.87
2023-03-17T21:57:32.159Z,6.30
2023-03-17T22:00:00.190Z,6.87
2023-03-17T22:02:28.158Z,6.53
2023-03-17T22:04:56.792Z,6.60
2023-03-17T22:07:24.722Z,8.70
2023-03-17T22:09:57.752Z,13.70
2023-03-17T22:12:26.039Z,18.90
2023-03-17T22:14:56.833Z,13.30
2023-03-17T22:17:25.817Z,13.77
2023-03-17T22:19:53.999Z,10.20
2023-03-17T22:22:22.549Z,8.50
2023-03-17T22:24:50.571Z,7.80
2023-03-17T22:27:19.916Z,6.40
2023-03-17T22:29:48.082Z,8.70
2023-03-17T22:32:16.026Z,10.87
2023-03-17T22:34:44.005Z,9.50
2023-03-17T22:37:12.065Z,8.70
2023-03-17T22:39:40.118Z,8.00
2023-03-17T22:42:08.464Z,7.50
2023-03-17T22:44:37.730Z,6.53
2023-03-17T22:47:06.298Z,6.23
2023-03-17T22:49:34.254Z,6.60
2023-03-17T22:52:02.174Z,5.33
2023-03-17T22:54:30.084Z,6.20
2023-03-17T22:56:58.002Z,6.60
2023-03-17T22:59:25.908Z,5.93
2023-03-17T23:01:55.196Z,6.37
2023-03-17T23:04:23.149Z,5.70
2023-03-17T23:06:51.656Z,6.23
2023-03-17T23:09:20.082Z,5.63
2023-03-17T23:11:48.305Z,6.97
2023-03-17T23:14:16.256Z,6.60
2023-03-17T23:16:44.846Z,7.00
2023-03-17T23:19:14.496Z,7.30
2023-03-17T23:21:42.426Z,8.70
2023-03-17T23:24:10.408Z,8.40
2023-03-17T23:26:38.789Z,7.60
2023-03-17T23:29:08.330Z,7.87
2023-03-17T23:31:38.161Z,7.20
2023-03-17T23:34:06.907Z,8.40
2023-03-17T23:36:39.886Z,7.90
2023-03-17T23:39:08.669Z,8.70
2023-03-17T23:41:37.182Z,7.67
2023-03-17T23:44:05.382Z,7.20
2023-03-17T23:46:33.415Z,7.70
2023-03-17T23:49:01.469Z,7.87
2023-03-17T23:51:29.783Z,8.20
2023-03-17T23:53:59.083Z,7.50
2023-03-17T23:56:27.396Z,6.97
2023-03-17T23:58:55.848Z,7.10
